Thunder radar more information blitzortung!


Radar de pluja more information rain snow radar


Visita la nostra xarxa de llocs de meteo:

Template documentation
and downloads

And another site



Wind From: 11-12-2017 11:00 Until: 14:59 warning for: Wind Level: Yellow info button

Pagina Historial Weather Underground text

Diari Resum Agost 1, 2017 Unitats:  Mètric    Imperial   Tant
« Previous Dia
SegĂźent Dia »
Diari Setmana Mensual Anual Personalitzada
  Maxima: Minima: Media:
Temperatura: 33.0 °C 21.9 °C 26.9 °C
Punt de rosada: 22.2 °C 15.9 °C 20.5 °C
Humitat: 86 % 38 % 70 %
Wind Speed: 18.5 km/h 0.0 km/h 4.9 km/h
RĂ fegues de vent: 18.5 km/h - -
Vent:- - SE
Pression baro: 1016.8 hPa 1010.0 hPa -
Precipitacions: 0.0 mm    
Historical Graphs
 
 
Dades de taula per Agost 1, 2017
Temps Temperatura Punt de rosada Pression baro Vent Wind Speed RĂ fegues de vent Humitat Rainfall Rate (Hourly)
11:01 24.6 °C 21.1 °C 1010.0 hPa ENE 7.4 km/h   81 % 0.0 mm
11:06 26.8 °C 21.1 °C 1012.8 hPa NNW 3.7 km/h 3.7 km/h 71 % 0.0 mm
11:11 27.1 °C 20.9 °C 1012.8 hPa South 5.6 km/h 5.6 km/h 69 % 0.0 mm
11:16 27.4 °C 21.2 °C 1012.8 hPa SW 5.6 km/h 5.6 km/h 69 % 0.0 mm
11:21 27.3 °C 21.1 °C 1012.8 hPa SSW 3.7 km/h 3.7 km/h 69 % 0.0 mm
11:26 27.3 °C 21.1 °C 1012.8 hPa WSW 3.7 km/h 3.7 km/h 69 % 0.0 mm
11:31 27.2 °C 21.0 °C 1012.8 hPa SW 7.4 km/h 7.4 km/h 69 % 0.0 mm
11:36 27.1 °C 20.9 °C 1013.8 hPa North 3.2 km/h 3.2 km/h 69 % 0.0 mm
11:41 27.1 °C 20.9 °C 1013.8 hPa SW 3.7 km/h 3.7 km/h 69 % 0.0 mm
11:46 27.1 °C 20.9 °C 1013.8 hPa WSW 3.7 km/h 3.7 km/h 69 % 0.0 mm
11:51 27.1 °C 20.9 °C 1013.8 hPa SW 5.6 km/h 5.6 km/h 69 % 0.0 mm
11:56 27.3 °C 21.1 °C 1013.8 hPa West 3.7 km/h 3.7 km/h 69 % 0.0 mm
12:01 27.6 °C 21.4 °C 1013.8 hPa WSW 3.9 km/h 3.9 km/h 69 % 0.0 mm
12:06 27.9 °C 21.4 °C 1013.8 hPa West 1.9 km/h   68 % 0.0 mm
12:11 27.9 °C 21.4 °C 1013.8 hPa West 7.4 km/h 7.4 km/h 68 % 0.0 mm
12:16 27.8 °C 21.1 °C 1013.8 hPa WSW 3.7 km/h 3.7 km/h 67 % 0.0 mm
12:21 27.9 °C 21.2 °C 1013.8 hPa WSW 4.2 km/h 4.2 km/h 67 % 0.0 mm
12:26 27.8 °C 21.1 °C 1013.8 hPa NE 3.7 km/h 3.7 km/h 67 % 0.0 mm
12:27 27.8 °C 21.1 °C 1013.8 hPa NE 3.7 km/h 3.7 km/h 67 % 0.0 mm
12:32 27.7 °C 21.0 °C 1013.8 hPa ESE 7.4 km/h 7.4 km/h 67 % 0.0 mm
12:37 27.2 °C 20.8 °C 1013.8 hPa ESE 5.6 km/h 5.6 km/h 68 % 0.0 mm
12:42 26.9 °C 20.7 °C 1013.8 hPa ENE 6.1 km/h 6.1 km/h 69 % 0.0 mm
12:47 27.0 °C 21.1 °C 1011.7 hPa NNE 3.7 km/h 3.7 km/h 70 % 0.0 mm
12:52 27.0 °C 20.8 °C 1011.7 hPa NNE 9.3 km/h 9.3 km/h 69 % 0.0 mm
12:57 27.0 °C 20.8 °C 1011.7 hPa North 9.3 km/h 9.3 km/h 69 % 0.0 mm
13:02 27.1 °C 20.9 °C 1011.7 hPa NNE 7.4 km/h 7.4 km/h 69 % 0.0 mm
13:07 26.9 °C 20.9 °C 1011.7 hPa ENE 5.6 km/h 5.6 km/h 70 % 0.0 mm
13:12 26.9 °C 20.9 °C 1011.7 hPa NW 3.7 km/h 3.7 km/h 70 % 0.0 mm
13:17 27.1 °C 21.2 °C 1013.8 hPa ENE 3.7 km/h 3.7 km/h 70 % 0.0 mm
13:22 27.2 °C 21.3 °C 1013.8 hPa SW 1.9 km/h 1.9 km/h 70 % 0.0 mm
13:27 27.5 °C 21.3 °C 1013.8 hPa South 3.9 km/h 3.9 km/h 69 % 0.0 mm
13:32 28.3 °C 21.8 °C 1013.8 hPa SSE 5.6 km/h 5.6 km/h 68 % 0.0 mm
13:37 28.5 °C 22.0 °C 1013.8 hPa NNE 6.1 km/h 6.1 km/h 68 % 0.0 mm
13:38 28.4 °C 21.7 °C 1013.8 hPa ENE 4.7 km/h 4.7 km/h 67 % 0.0 mm
13:42 27.9 °C 21.2 °C 1013.8 hPa East 5.6 km/h 5.6 km/h 67 % 0.0 mm
13:47 28.1 °C 21.4 °C 1011.7 hPa ESE 7.4 km/h 7.4 km/h 67 % 0.0 mm
13:52 28.3 °C 21.1 °C 1011.7 hPa East 7.4 km/h 7.4 km/h 65 % 0.0 mm
13:57 28.6 °C 21.4 °C 1011.7 hPa ESE 3.7 km/h 3.7 km/h 65 % 0.0 mm
14:02 28.7 °C 21.2 °C 1012.8 hPa ESE 7.4 km/h 7.4 km/h 64 % 0.0 mm
14:07 28.7 °C 21.2 °C 1012.8 hPa ESE 9.3 km/h 9.3 km/h 64 % 0.0 mm
14:12 29.2 °C 21.4 °C 1012.8 hPa NNE 5.6 km/h 5.6 km/h 63 % 0.0 mm
14:17 29.6 °C 21.6 °C 1011.7 hPa ENE 3.7 km/h 3.7 km/h 62 % 0.0 mm
14:22 30.2 °C 21.6 °C 1011.7 hPa South 2.3 km/h 2.3 km/h 60 % 0.0 mm
14:27 30.2 °C 21.8 °C 1011.7 hPa NNE 5.6 km/h 5.6 km/h 61 % 0.0 mm
14:32 30.2 °C 21.6 °C 1011.7 hPa East 3.9 km/h 3.9 km/h 60 % 0.0 mm
14:37 30.5 °C 21.3 °C 1011.7 hPa NNE 5.6 km/h 5.6 km/h 58 % 0.0 mm
14:42 31.2 °C 21.7 °C 1011.7 hPa East 5.6 km/h 5.6 km/h 57 % 0.0 mm
14:47 31.7 °C 21.8 °C 1011.7 hPa NNE 10.3 km/h 10.3 km/h 56 % 0.0 mm
14:52 32.1 °C 21.9 °C 1011.7 hPa NE 7.4 km/h 7.4 km/h 55 % 0.0 mm
14:57 32.3 °C 21.5 °C 1011.7 hPa ENE 13.0 km/h 13.0 km/h 53 % 0.0 mm
15:02 32.3 °C 21.5 °C 1011.7 hPa NNW 9.0 km/h 9.0 km/h 53 % 0.0 mm
15:07 32.5 °C 20.4 °C 1011.7 hPa WSW 12.2 km/h 12.2 km/h 49 % 0.0 mm
15:12 32.8 °C 19.7 °C 1011.7 hPa SSW 7.4 km/h 7.4 km/h 46 % 0.0 mm
15:17 33.0 °C 19.1 °C 1011.7 hPa SSE 9.3 km/h 9.3 km/h 44 % 0.0 mm
15:22 32.9 °C 18.7 °C 1011.7 hPa West 7.4 km/h 7.4 km/h 43 % 0.0 mm
15:27 32.7 °C 18.1 °C 1011.7 hPa West 16.7 km/h 16.7 km/h 42 % 0.0 mm
15:32 32.3 °C 17.8 °C 1011.7 hPa South 9.3 km/h 9.3 km/h 42 % 0.0 mm
15:37 32.2 °C 18.1 °C 1011.7 hPa WSW 9.3 km/h 9.3 km/h 43 % 0.0 mm
15:42 32.5 °C 17.2 °C 1011.7 hPa WSW 18.5 km/h 18.5 km/h 40 % 0.0 mm
15:47 32.5 °C 16.3 °C 1011.7 hPa WNW 13.0 km/h 13.0 km/h 38 % 0.0 mm
15:52 32.4 °C 16.3 °C 1011.7 hPa NW 9.3 km/h 9.3 km/h 38 % 0.0 mm
15:57 32.2 °C 16.5 °C 1011.7 hPa West 11.1 km/h 11.1 km/h 39 % 0.0 mm
16:02 32.0 °C 15.9 °C 1013.8 hPa WSW 8.7 km/h 8.7 km/h 38 % 0.0 mm
16:07 31.9 °C 16.2 °C 1013.8 hPa WNW 9.3 km/h 9.3 km/h 39 % 0.0 mm
16:12 31.8 °C 16.1 °C 1013.8 hPa SW 9.3 km/h 9.3 km/h 39 % 0.0 mm
16:17 31.7 °C 16.1 °C 1012.8 hPa WSW 8.7 km/h 8.7 km/h 39 % 0.0 mm
16:22 31.6 °C 16.7 °C 1012.8 hPa WSW 9.3 km/h 9.3 km/h 41 % 0.0 mm
16:27 31.4 °C 16.6 °C 1012.8 hPa West 9.3 km/h 9.3 km/h 41 % 0.0 mm
16:32 31.7 °C 16.8 °C 1014.8 hPa SW 9.7 km/h 9.7 km/h 41 % 0.0 mm
16:37 31.8 °C 17.3 °C 1014.8 hPa SW 7.4 km/h 7.4 km/h 42 % 0.0 mm
16:42 31.7 °C 17.6 °C 1014.8 hPa West 5.6 km/h 5.6 km/h 43 % 0.0 mm
16:47 31.2 °C 18.2 °C 1014.8 hPa SW 11.1 km/h 11.1 km/h 46 % 0.0 mm
16:52 30.7 °C 18.8 °C 1014.8 hPa WSW 11.1 km/h 11.1 km/h 49 % 0.0 mm
16:57 30.2 °C 18.9 °C 1014.8 hPa NE 7.4 km/h 7.4 km/h 51 % 0.0 mm
17:02 30.0 °C 19.4 °C 1013.8 hPa West 5.6 km/h 5.6 km/h 53 % 0.0 mm
17:03 30.0 °C 19.4 °C 1013.8 hPa West 6.4 km/h 6.4 km/h 53 % 0.0 mm
17:08 29.9 °C 19.6 °C 1013.8 hPa ESE 3.7 km/h 3.7 km/h 54 % 0.0 mm
17:13 29.4 °C 20.3 °C 1013.8 hPa ESE 7.4 km/h 7.4 km/h 58 % 0.0 mm
17:18 29.0 °C 20.2 °C 1013.8 hPa NNE 6.9 km/h 6.9 km/h 59 % 0.0 mm
17:23 28.7 °C 20.4 °C 1013.8 hPa East 7.4 km/h 7.4 km/h 61 % 0.0 mm
17:28 28.2 °C 20.7 °C 1013.8 hPa ENE 7.4 km/h 7.4 km/h 64 % 0.0 mm
17:33 27.9 °C 20.4 °C 1013.8 hPa NE 7.4 km/h 7.4 km/h 64 % 0.0 mm
17:38 27.7 °C 20.5 °C 1013.8 hPa ENE 7.4 km/h 7.4 km/h 65 % 0.0 mm
17:43 27.5 °C 20.6 °C 1013.8 hPa NE 9.0 km/h 9.0 km/h 66 % 0.0 mm
17:48 27.3 °C 20.6 °C 1013.8 hPa SE 6.4 km/h 6.4 km/h 67 % 0.0 mm
17:53 27.1 °C 20.7 °C 1013.8 hPa NNE 7.4 km/h 7.4 km/h 68 % 0.0 mm
17:58 26.9 °C 20.7 °C 1013.8 hPa NE 3.7 km/h 3.7 km/h 69 % 0.0 mm
18:03 26.8 °C 20.9 °C 1013.8 hPa ENE 7.4 km/h 7.4 km/h 70 % 0.0 mm
18:08 26.8 °C 21.1 °C 1013.8 hPa NNE 7.4 km/h 7.4 km/h 71 % 0.0 mm
18:13 26.7 °C 21.0 °C 1013.8 hPa ENE 5.6 km/h 5.6 km/h 71 % 0.0 mm
18:18 26.7 °C 21.0 °C 1013.8 hPa East 5.6 km/h 5.6 km/h 71 % 0.0 mm
18:23 26.8 °C 21.1 °C 1013.8 hPa NNE 9.3 km/h 9.3 km/h 71 % 0.0 mm
18:28 26.8 °C 21.1 °C 1013.8 hPa East 7.9 km/h 7.9 km/h 71 % 0.0 mm
18:33 26.8 °C 21.1 °C 1012.8 hPa North 5.8 km/h 5.8 km/h 71 % 0.0 mm
18:38 26.8 °C 21.3 °C 1012.8 hPa NNE 7.4 km/h 7.4 km/h 72 % 0.0 mm
18:43 26.8 °C 21.8 °C 1012.8 hPa East 6.1 km/h 6.1 km/h 74 % 0.0 mm
18:48 26.6 °C 21.6 °C 1011.7 hPa ENE 7.4 km/h 7.4 km/h 74 % 0.0 mm
18:53 26.5 °C 21.5 °C 1011.7 hPa North 3.7 km/h 3.7 km/h 74 % 0.0 mm
18:58 26.5 °C 21.9 °C 1011.7 hPa SE 9.3 km/h 9.3 km/h 76 % 0.0 mm
19:03 26.6 °C 22.0 °C 1012.8 hPa East 5.6 km/h 5.6 km/h 76 % 0.0 mm
19:08 26.5 °C 22.1 °C 1012.8 hPa ESE 5.6 km/h 5.6 km/h 77 % 0.0 mm
19:13 26.5 °C 22.1 °C 1012.8 hPa East 5.6 km/h 5.6 km/h 77 % 0.0 mm
19:15 23.8 °C 20.9 °C 1016.8 hPa SW 1.6 km/h 1.6 km/h 84 % 0.0 mm
19:18 26.4 °C 21.8 °C 1011.7 hPa ENE 11.1 km/h 11.1 km/h 76 % 0.0 mm
19:23 26.2 °C 21.8 °C 1011.7 hPa NNE 9.3 km/h 9.3 km/h 77 % 0.0 mm
19:25 23.8 °C 21.1 °C 1016.8 hPa Calm   1.6 km/h 85 % 0.0 mm
19:28 26.2 °C 21.8 °C 1011.7 hPa NNE 7.4 km/h 7.4 km/h 77 % 0.0 mm
19:33 26.3 °C 22.2 °C 1011.7 hPa ENE 11.1 km/h 11.1 km/h 78 % 0.0 mm
19:35 23.7 °C 21.0 °C 1016.8 hPa Calm     85 % 0.0 mm
19:38 26.3 °C 22.2 °C 1011.7 hPa NNE 9.3 km/h 9.3 km/h 78 % 0.0 mm
19:43 26.3 °C 22.2 °C 1011.7 hPa ENE 5.6 km/h 5.6 km/h 78 % 0.0 mm
19:45 23.4 °C 20.7 °C 1016.8 hPa Calm   1.6 km/h 85 % 0.0 mm
19:48 26.3 °C 21.9 °C 1011.7 hPa ESE 8.7 km/h 8.7 km/h 77 % 0.0 mm
19:53 26.3 °C 21.9 °C 1011.7 hPa ENE 8.7 km/h 8.7 km/h 77 % 0.0 mm
19:55 23.4 °C 20.7 °C 1016.8 hPa SW 3.2 km/h 3.2 km/h 85 % 0.0 mm
19:58 26.4 °C 22.1 °C 1011.7 hPa North 5.6 km/h 5.6 km/h 77 % 0.0 mm
20:03 26.4 °C 21.8 °C 1011.7 hPa ENE 7.4 km/h 7.4 km/h 76 % 0.0 mm
20:05 23.5 °C 21.0 °C 1015.8 hPa Calm     86 % 0.0 mm
20:08 26.4 °C 21.8 °C 1011.7 hPa North 9.3 km/h 9.3 km/h 76 % 0.0 mm
20:13 26.4 °C 21.8 °C 1011.7 hPa NNE 6.1 km/h 6.1 km/h 76 % 0.0 mm
20:15 23.4 °C 20.9 °C 1015.8 hPa Calm     86 % 0.0 mm
20:18 26.4 °C 21.8 °C 1011.7 hPa ENE 5.6 km/h 5.6 km/h 76 % 0.0 mm
20:23 26.4 °C 21.8 °C 1011.7 hPa NNE 5.6 km/h 5.6 km/h 76 % 0.0 mm
20:25 23.5 °C 21.0 °C 1015.8 hPa NNW 1.6 km/h 3.2 km/h 86 % 0.0 mm
20:28 26.4 °C 21.8 °C 1011.7 hPa NE 3.7 km/h 3.7 km/h 76 % 0.0 mm
20:33 26.4 °C 21.8 °C 1012.8 hPa NE 5.6 km/h 5.6 km/h 76 % 0.0 mm
20:35 23.2 °C 20.7 °C 1015.8 hPa NNE 1.6 km/h 4.8 km/h 86 % 0.0 mm
20:38 26.4 °C 21.8 °C 1012.8 hPa NNE 5.6 km/h 5.6 km/h 76 % 0.0 mm
20:43 26.3 °C 21.7 °C 1012.8 hPa NNE 7.4 km/h 7.4 km/h 76 % 0.0 mm
20:45 23.0 °C 20.6 °C 1015.8 hPa Calm     86 % 0.0 mm
20:48 26.3 °C 21.7 °C 1013.8 hPa NNE 3.7 km/h 3.7 km/h 76 % 0.0 mm
20:53 26.2 °C 21.6 °C 1013.8 hPa NNE 3.7 km/h 3.7 km/h 76 % 0.0 mm
20:55 22.8 °C 20.3 °C 1014.8 hPa Calm   1.6 km/h 86 % 0.0 mm
20:58 26.2 °C 21.6 °C 1013.8 hPa Calm     76 % 0.0 mm
21:03 26.2 °C 21.6 °C 1013.8 hPa Calm     76 % 0.0 mm
21:05 22.6 °C 19.9 °C 1015.8 hPa Calm   1.6 km/h 85 % 0.0 mm
21:08 26.0 °C 21.7 °C 1013.8 hPa NE 1.9 km/h 1.9 km/h 77 % 0.0 mm
21:13 26.0 °C 21.7 °C 1013.8 hPa Calm     77 % 0.0 mm
21:15 22.7 °C 20.1 °C 1015.8 hPa Calm     85 % 0.0 mm
21:18 26.0 °C 21.7 °C 1013.8 hPa Calm     77 % 0.0 mm
21:23 25.9 °C 21.6 °C 1013.8 hPa ESE 3.7 km/h 3.7 km/h 77 % 0.0 mm
21:25 22.5 °C 19.8 °C 1015.8 hPa SSW 1.6 km/h 3.2 km/h 85 % 0.0 mm
21:28 25.9 °C 21.8 °C 1013.8 hPa East 4.2 km/h 4.2 km/h 78 % 0.0 mm
21:33 25.9 °C 21.8 °C 1013.8 hPa ESE 4.7 km/h 4.7 km/h 78 % 0.0 mm
21:35 22.6 °C 19.6 °C 1015.8 hPa NNE 3.2 km/h 3.2 km/h 83 % 0.0 mm
21:38 25.8 °C 21.7 °C 1013.8 hPa ENE 1.9 km/h 1.9 km/h 78 % 0.0 mm
21:43 25.6 °C 21.5 °C 1013.8 hPa NE 1.9 km/h   78 % 0.0 mm
21:45 22.7 °C 19.1 °C 1015.8 hPa North 3.2 km/h 8.0 km/h 80 % 0.0 mm
21:48 25.6 °C 21.5 °C 1013.8 hPa ENE 2.3 km/h 2.3 km/h 78 % 0.0 mm
21:53 25.5 °C 21.4 °C 1013.8 hPa NE 3.7 km/h 3.7 km/h 78 % 0.0 mm
21:55 22.8 °C 18.6 °C 1015.8 hPa NNE 4.8 km/h 9.7 km/h 77 % 0.0 mm
21:58 25.5 °C 21.4 °C 1013.8 hPa NNE 2.3 km/h 2.3 km/h 78 % 0.0 mm
22:03 25.4 °C 21.3 °C 1014.8 hPa SSW 1.9 km/h 1.9 km/h 78 % 0.0 mm
22:05 22.9 °C 18.2 °C 1015.8 hPa NNE 3.2 km/h 11.3 km/h 75 % 0.0 mm
22:07 25.3 °C 21.2 °C 1014.8 hPa Calm     78 % 0.0 mm
22:08 25.3 °C 21.2 °C 1014.8 hPa Calm     78 % 0.0 mm
22:09 25.3 °C 21.2 °C 1014.8 hPa Calm     78 % 0.0 mm
22:12 25.3 °C 21.2 °C 1014.8 hPa Calm     78 % 0.0 mm
22:15 23.0 °C 17.9 °C 1015.8 hPa North 3.2 km/h 9.7 km/h 73 % 0.0 mm
22:17 25.2 °C 21.3 °C 1014.8 hPa Calm     79 % 0.0 mm
22:18 25.2 °C 21.3 °C 1014.8 hPa Calm     79 % 0.0 mm
22:22 25.1 °C 21.2 °C 1014.8 hPa Calm     79 % 0.0 mm
22:25 23.0 °C 17.9 °C 1015.8 hPa NNW 3.2 km/h 8.0 km/h 73 % 0.0 mm
22:27 25.1 °C 21.2 °C 1014.8 hPa ENE 1.9 km/h 1.9 km/h 79 % 0.0 mm
22:32 25.0 °C 21.1 °C 1015.8 hPa Calm     79 % 0.0 mm
22:35 22.9 °C 17.6 °C 1015.8 hPa NNW 3.2 km/h 6.4 km/h 72 % 0.0 mm
22:37 25.0 °C 21.1 °C 1015.8 hPa NE 3.7 km/h 3.7 km/h 79 % 0.0 mm
22:42 24.9 °C 21.4 °C 1015.8 hPa NE 3.5 km/h 3.5 km/h 81 % 0.0 mm
22:45 22.5 °C 17.6 °C 1015.8 hPa Calm   3.2 km/h 74 % 0.0 mm
22:47 24.8 °C 21.3 °C 1015.8 hPa NE 5.6 km/h 5.6 km/h 81 % 0.0 mm
22:52 24.7 °C 21.2 °C 1015.8 hPa NE 4.7 km/h 4.7 km/h 81 % 0.0 mm
22:55 22.4 °C 17.6 °C 1015.8 hPa Calm   4.8 km/h 74 % 0.0 mm
22:57 24.6 °C 21.3 °C 1015.8 hPa NE 1.9 km/h 1.9 km/h 82 % 0.0 mm
23:02 24.5 °C 21.2 °C 1015.8 hPa NE 3.7 km/h 3.7 km/h 82 % 0.0 mm
23:05 22.2 °C 17.6 °C 1014.8 hPa Calm   3.2 km/h 75 % 0.0 mm
23:07 24.5 °C 21.2 °C 1015.8 hPa East 1.9 km/h 1.9 km/h 82 % 0.0 mm
23:12 24.5 °C 21.2 °C 1015.8 hPa NNE 3.7 km/h 3.7 km/h 82 % 0.0 mm
23:15 22.1 °C 17.9 °C 1014.8 hPa Calm   3.2 km/h 77 % 0.0 mm
23:17 24.4 °C 21.1 °C 1016.8 hPa North 3.7 km/h 3.7 km/h 82 % 0.0 mm
23:22 24.4 °C 21.1 °C 1016.8 hPa NW 1.9 km/h   82 % 0.0 mm
23:25 22.1 °C 18.3 °C 1015.8 hPa Calm     79 % 0.0 mm
23:27 24.3 °C 21.2 °C 1016.8 hPa NW 1.9 km/h   83 % 0.0 mm
23:32 24.2 °C 21.1 °C 1016.8 hPa SW 2.6 km/h 2.6 km/h 83 % 0.0 mm
23:35 22.1 °C 18.7 °C 1015.8 hPa Calm     81 % 0.0 mm
23:37 24.0 °C 20.9 °C 1016.8 hPa SW 1.9 km/h 1.9 km/h 83 % 0.0 mm
23:42 24.0 °C 20.9 °C 1016.8 hPa Calm     83 % 0.0 mm
23:45 22.0 °C 18.8 °C 1015.8 hPa Calm   3.2 km/h 82 % 0.0 mm
23:47 24.1 °C 21.1 °C 1016.8 hPa Calm     83 % 0.0 mm
23:52 24.0 °C 21.1 °C 1016.8 hPa Calm     84 % 0.0 mm
23:55 21.9 °C 18.7 °C 1015.8 hPa Calm   1.6 km/h 82 % 0.0 mm
23:57 24.0 °C 21.1 °C 1016.8 hPa Calm     84 % 0.0 mm
Meteo Sesrovires
Elogis d' Weather Underground - 3.5 mb

Guio original per  Jim McMurry - jmcmurry@mwt.net Adaptat per a la plantilla per  Wim van der Kuil - Leuven-Template.eu

Trobareu la nostra informacio del temps tambe a:

Weather Underground

AWEKAS